Time;durP1;ratioP1;P1;durP2;ratioP2;P2;SDS_P1;SDS_P2;PMS_P1;PMS_P2;Temp;Humidity;BMP_temperature;BMP_pressure;BME280_temperature;BME280_humidity;BME280_pressure;Samples;Min_cycle;Max_cycle;Signal;HPM_P1;HPM_P2
2022/03/20 00:00:46;;;;;;;;;;;22.50;36.10;;;;;;1574706;75;1904;-64
2022/03/20 00:02:48;;;;;;;;;;;22.50;36.10;;;;;;1574851;75;761;-63
2022/03/20 00:04:50;;;;;;;;;;;22.60;36.10;;;;;;1573836;74;1075;-65
2022/03/20 00:06:52;;;;;;;;;;;22.50;36.30;;;;;;1574841;75;700;-64
2022/03/20 00:08:55;;;;;;;;;;;22.50;36.20;;;;;;1577828;75;953;-65
2022/03/20 00:11:04;;;;;;;;;;;22.50;36.30;;;;;;1577827;75;709;-67
2022/03/20 00:13:04;;;;;;;;;;;22.50;36.40;;;;;;1573194;75;1504;-66
2022/03/20 00:15:05;;;;;;;;;;;22.50;36.40;;;;;;1574566;74;1684;-64
2022/03/20 00:17:07;;;;;;;;;;;22.60;36.50;;;;;;1574952;75;811;-64
2022/03/20 00:19:09;;;;;;;;;;;22.40;36.40;;;;;;1575128;75;706;-66
2022/03/20 00:21:11;;;;;;;;;;;22.60;36.50;;;;;;1573896;75;1941;-64
2022/03/20 00:23:13;;;;;;;;;;;22.50;36.50;;;;;;1574823;75;797;-64
2022/03/20 00:25:16;;;;;;;;;;;22.50;36.50;;;;;;1573841;74;1064;-65
2022/03/20 00:27:18;;;;;;;;;;;22.60;36.50;;;;;;1574941;75;782;-66
2022/03/20 00:29:21;;;;;;;;;;;22.60;36.40;;;;;;1574928;75;665;-64
2022/03/20 00:31:23;;;;;;;;;;;22.60;36.50;;;;;;1574956;75;780;-65
2022/03/20 00:33:24;;;;;;;;;;;22.60;36.60;;;;;;1575002;74;1180;-67
2022/03/20 00:35:26;;;;;;;;;;;22.60;36.50;;;;;;1573829;75;677;-64
2022/03/20 00:37:28;;;;;;;;;;;22.60;36.60;;;;;;1575048;75;923;-65
2022/03/20 00:39:30;;;;;;;;;;;22.70;36.50;;;;;;1574831;75;705;-65
2022/03/20 00:41:32;;;;;;;;;;;22.70;36.60;;;;;;1570348;74;1947;-65
2022/03/20 00:43:36;;;;;;;;;;;22.70;36.90;;;;;;1574844;75;1116;-65
2022/03/20 00:45:39;;;;;;;;;;;22.60;36.70;;;;;;1574741;75;747;-65
2022/03/20 00:47:40;;;;;;;;;;;22.60;36.60;;;;;;1569182;75;751;-65
2022/03/20 00:49:42;;;;;;;;;;;22.70;36.80;;;;;;1571190;75;733;-65
2022/03/20 00:51:44;;;;;;;;;;;22.80;36.80;;;;;;1574894;75;761;-67
2022/03/20 00:53:46;;;;;;;;;;;22.80;36.90;;;;;;1574987;74;1139;-65
2022/03/20 00:55:48;;;;;;;;;;;22.70;36.80;;;;;;1573882;75;748;-65
2022/03/20 00:57:50;;;;;;;;;;;22.80;36.90;;;;;;1575096;75;560;-68
2022/03/20 00:59:52;;;;;;;;;;;22.80;36.90;;;;;;1575019;75;2035;-67
2022/03/20 01:01:54;;;;;;;;;;;22.70;36.90;;;;;;1574805;75;794;-65
2022/03/20 01:03:56;;;;;;;;;;;22.80;36.90;;;;;;1573858;74;1172;-68
2022/03/20 01:05:58;;;;;;;;;;;22.80;36.80;;;;;;1574900;75;789;-65
2022/03/20 01:08:00;;;;;;;;;;;22.80;36.90;;;;;;1560135;75;763;-65
2022/03/20 01:10:04;;;;;;;;;;;22.80;36.90;;;;;;1548269;76;786;-65
2022/03/20 01:12:08;;;;;;;;;;;22.80;36.90;;;;;;1559639;75;772;-65
2022/03/20 01:14:11;;;;;;;;;;;22.80;37.00;;;;;;1574849;74;2035;-67
2022/03/20 01:16:13;;;;;;;;;;;22.70;36.90;;;;;;1574819;75;712;-64
2022/03/20 01:18:15;;;;;;;;;;;22.80;36.90;;;;;;1574782;75;801;-65
2022/03/20 01:20:17;;;;;;;;;;;22.80;37.10;;;;;;1573950;75;1944;-65
2022/03/20 01:22:19;;;;;;;;;;;22.80;37.00;;;;;;1574904;75;788;-65
2022/03/20 01:24:22;;;;;;;;;;;22.80;37.00;;;;;;1573692;74;1150;-66
2022/03/20 01:26:24;;;;;;;;;;;22.80;37.00;;;;;;1574854;75;803;-68
2022/03/20 01:28:26;;;;;;;;;;;22.80;37.10;;;;;;1564926;75;740;-68
2022/03/20 01:30:28;;;;;;;;;;;22.90;37.20;;;;;;1563536;75;742;-68
2022/03/20 01:32:30;;;;;;;;;;;22.80;37.20;;;;;;1572981;75;685;-69
2022/03/20 01:34:32;;;;;;;;;;;22.80;37.30;;;;;;1574797;75;1234;-64
2022/03/20 01:36:34;;;;;;;;;;;22.80;37.20;;;;;;1575031;75;714;-65
2022/03/20 01:38:36;;;;;;;;;;;22.80;37.10;;;;;;1563326;75;764;-64
2022/03/20 01:40:37;;;;;;;;;;;22.80;37.20;;;;;;1574869;75;1959;-65
2022/03/20 01:42:39;;;;;;;;;;;22.80;37.30;;;;;;1574979;75;814;-66
2022/03/20 01:44:41;;;;;;;;;;;22.80;37.30;;;;;;1574843;74;1116;-66
2022/03/20 01:46:43;;;;;;;;;;;22.80;37.30;;;;;;1561856;75;806;-70
2022/03/20 01:48:45;;;;;;;;;;;22.80;37.30;;;;;;1574826;75;753;-67
2022/03/20 01:50:47;;;;;;;;;;;22.90;37.40;;;;;;1574862;75;636;-65
2022/03/20 01:52:49;;;;;;;;;;;22.80;37.30;;;;;;1574880;75;792;-65
2022/03/20 01:54:51;;;;;;;;;;;22.80;37.30;;;;;;1573823;74;1128;-64
2022/03/20 01:56:53;;;;;;;;;;;22.80;37.40;;;;;;1574785;75;716;-64
2022/03/20 01:58:55;;;;;;;;;;;22.80;37.40;;;;;;1574863;75;714;-64
2022/03/20 02:00:57;;;;;;;;;;;22.80;37.50;;;;;;1574855;75;1936;-64
2022/03/20 02:02:59;;;;;;;;;;;22.80;37.50;;;;;;1573723;75;786;-64
2022/03/20 02:05:01;;;;;;;;;;;22.80;37.50;;;;;;1574921;74;1175;-65
2022/03/20 02:07:03;;;;;;;;;;;22.80;37.40;;;;;;1575137;75;767;-65
2022/03/20 02:09:05;;;;;;;;;;;22.80;37.50;;;;;;1577726;75;668;-65
2022/03/20 02:11:07;;;;;;;;;;;22.80;37.50;;;;;;1576589;75;753;-64
2022/03/20 02:13:09;;;;;;;;;;;22.80;37.60;;;;;;1542536;77;789;-65
2022/03/20 02:15:14;;;;;;;;;;;22.70;37.60;;;;;;1574887;74;1088;-65
2022/03/20 02:17:16;;;;;;;;;;;22.80;37.60;;;;;;1574877;75;994;-65
2022/03/20 02:19:18;;;;;;;;;;;22.80;37.70;;;;;;1574946;75;798;-65
2022/03/20 02:21:39;;;;;;;;;;;22.80;37.80;;;;;;1573775;75;1908;-65
2022/03/20 02:23:40;;;;;;;;;;;22.80;37.70;;;;;;1574617;74;1947;-68
2022/03/20 02:25:49;;;;;;;;;;;22.80;37.70;;;;;;1573799;75;698;-65
2022/03/20 02:27:53;;;;;;;;;;;22.80;37.70;;;;;;1563257;74;1518;-65
2022/03/20 02:29:56;;;;;;;;;;;22.70;37.80;;;;;;1569727;74;1450;-65
2022/03/20 02:31:59;;;;;;;;;;;22.80;37.70;;;;;;1564000;75;830;-66
2022/03/20 02:34:01;;;;;;;;;;;22.70;37.80;;;;;;1564210;75;1380;-65
2022/03/20 02:36:03;;;;;;;;;;;22.70;37.80;;;;;;1569358;74;680;-64
2022/03/20 02:38:05;;;;;;;;;;;22.80;37.80;;;;;;1561741;75;801;-64
2022/03/20 02:40:07;;;;;;;;;;;22.80;37.80;;;;;;1559703;75;765;-67
2022/03/20 02:42:09;;;;;;;;;;;22.80;37.90;;;;;;1567442;74;1939;-64
2022/03/20 02:44:11;;;;;;;;;;;22.80;37.90;;;;;;1572799;74;1151;-65
2022/03/20 02:46:13;;;;;;;;;;;22.80;38.10;;;;;;1568452;75;728;-66
2022/03/20 02:48:15;;;;;;;;;;;22.80;38.20;;;;;;1546935;77;773;-66
2022/03/20 02:50:24;;;;;;;;;;;22.80;38.10;;;;;;1546901;77;661;-65
2022/03/20 02:52:28;;;;;;;;;;;22.90;38.20;;;;;;1557552;74;801;-65
2022/03/20 02:54:31;;;;;;;;;;;22.90;38.30;;;;;;1577897;74;1134;-66
2022/03/20 02:56:33;;;;;;;;;;;22.90;38.30;;;;;;1574903;75;696;-69
2022/03/20 02:58:35;;;;;;;;;;;23.00;38.20;;;;;;1574826;75;717;-68
2022/03/20 03:00:37;;;;;;;;;;;23.00;38.30;;;;;;1575089;75;1940;-66
2022/03/20 03:02:45;;;;;;;;;;;23.00;38.30;;;;;;1573913;75;702;-65
2022/03/20 03:04:44;;;;;;;;;;;23.00;38.40;;;;;;1549989;75;1170;-68
2022/03/20 03:06:45;;;;;;;;;;;23.00;38.40;;;;;;1546748;77;737;-66
2022/03/20 03:11:07;;;;;;;;;;;23.00;38.40;;;;;;1562189;75;1652;-67
2022/03/20 03:13:09;;;;;;;;;;;23.00;38.30;;;;;;1574809;75;726;-65
2022/03/20 03:15:19;;;;;;;;;;;23.00;38.40;;;;;;1574635;74;1114;-66
2022/03/20 03:17:27;;;;;;;;;;;23.00;38.40;;;;;;1575000;75;689;-66
2022/03/20 03:19:25;;;;;;;;;;;23.00;38.40;;;;;;1572658;75;1086;-68
2022/03/20 03:21:27;;;;;;;;;;;23.00;38.40;;;;;;1574716;75;1939;-66
2022/03/20 03:23:29;;;;;;;;;;;23.00;38.50;;;;;;1574804;74;1130;-66
2022/03/20 03:25:33;;;;;;;;;;;23.10;38.60;;;;;;1573678;75;711;-66
2022/03/20 03:27:35;;;;;;;;;;;23.20;38.50;;;;;;1573797;75;1896;-65
2022/03/20 03:29:36;;;;;;;;;;;23.20;38.70;;;;;;1575039;75;762;-65
2022/03/20 03:31:38;;;;;;;;;;;23.10;38.90;;;;;;1574701;75;705;-65
2022/03/20 03:36:01;;;;;;;;;;;22.90;39.40;;;;;;1574842;75;1641;-66
2022/03/20 03:38:03;;;;;;;;;;;22.80;39.60;;;;;;1584569;74;733;-65
2022/03/20 03:40:07;;;;;;;;;;;22.80;39.70;;;;;;1597292;74;675;-68
2022/03/20 03:42:09;;;;;;;;;;;22.70;39.90;;;;;;1574559;75;1924;-66
2022/03/20 03:44:11;;;;;;;;;;;22.70;40.10;;;;;;1575628;73;225408;-66
2022/03/20 03:46:13;;;;;;;;;;;22.70;40.20;;;;;;1566700;75;681;-65
2022/03/20 03:48:16;;;;;;;;;;;22.70;40.20;;;;;;1605202;74;726;-66
2022/03/20 03:50:17;;;;;;;;;;;22.70;40.30;;;;;;1605301;74;703;-65
2022/03/20 03:52:19;;;;;;;;;;;22.70;40.40;;;;;;1603288;74;720;-65
2022/03/20 03:54:21;;;;;;;;;;;22.70;40.50;;;;;;1575481;75;1181;-66
2022/03/20 03:56:23;;;;;;;;;;;22.70;40.50;;;;;;1575332;75;699;-66
2022/03/20 03:58:25;;;;;;;;;;;22.70;40.70;;;;;;1575802;75;711;-68
2022/03/20 04:00:29;;;;;;;;;;;22.70;40.70;;;;;;1575875;75;716;-67
2022/03/20 04:02:30;;;;;;;;;;;22.70;40.70;;;;;;1575804;75;1932;-65
2022/03/20 04:04:32;;;;;;;;;;;22.70;40.70;;;;;;1575174;75;1090;-65
2022/03/20 04:06:34;;;;;;;;;;;22.70;40.70;;;;;;1575936;75;692;-65
2022/03/20 04:08:36;;;;;;;;;;;22.70;40.60;;;;;;1576047;75;667;-65
2022/03/20 04:10:38;;;;;;;;;;;22.80;40.70;;;;;;1575805;75;612;-65
2022/03/20 04:12:47;;;;;;;;;;;22.80;40.60;;;;;;1574623;75;635;-66
2022/03/20 04:14:46;;;;;;;;;;;22.80;40.60;;;;;;1573699;74;1268;-66
2022/03/20 04:16:49;;;;;;;;;;;22.80;40.60;;;;;;1575871;75;752;-66
2022/03/20 04:18:50;;;;;;;;;;;22.80;40.60;;;;;;1575897;75;773;-65
2022/03/20 04:20:52;;;;;;;;;;;22.80;40.60;;;;;;1575841;75;710;-66
2022/03/20 04:25:14;;;;;;;;;;;22.90;40.90;;;;;;1567729;75;1628;-66
2022/03/20 04:27:16;;;;;;;;;;;22.90;40.80;;;;;;1557638;75;720;-66
2022/03/20 04:29:20;;;;;;;;;;;22.90;40.80;;;;;;1559683;75;821;-66
2022/03/20 04:31:21;;;;;;;;;;;23.00;40.70;;;;;;1559415;75;1593;-66
2022/03/20 04:33:25;;;;;;;;;;;22.90;40.70;;;;;;1551657;75;683;-67
2022/03/20 04:35:27;;;;;;;;;;;23.00;40.70;;;;;;1562114;75;1146;-65
2022/03/20 04:37:30;;;;;;;;;;;23.00;40.70;;;;;;1563477;75;729;-63
2022/03/20 04:39:33;;;;;;;;;;;23.00;40.70;;;;;;1565569;75;644;-67
2022/03/20 04:41:35;;;;;;;;;;;23.00;40.60;;;;;;1559615;75;1914;-65
2022/03/20 04:43:37;;;;;;;;;;;23.00;40.60;;;;;;1567055;75;766;-65
2022/03/20 04:45:39;;;;;;;;;;;23.00;40.60;;;;;;1559681;75;1183;-66
2022/03/20 04:59:19;;;;;;;;;;;23.00;40.70;;;;;;1579449;75;737;-68
2022/03/20 05:01:21;;;;;;;;;;;23.10;40.90;;;;;;1571154;75;1930;-70
2022/03/20 05:03:23;;;;;;;;;;;23.10;40.80;;;;;;1588234;75;760;-66
2022/03/20 05:05:25;;;;;;;;;;;23.10;40.80;;;;;;1588335;75;1127;-69
2022/03/20 05:07:27;;;;;;;;;;;23.10;40.80;;;;;;1588686;75;776;-68
2022/03/20 05:14:08;;;;;;;;;;;23.10;40.70;;;;;;1587310;73;1165;-69
2022/03/20 05:16:10;;;;;;;;;;;23.10;40.70;;;;;;1588423;75;653;-67
2022/03/20 05:18:12;;;;;;;;;;;23.10;40.70;;;;;;1588696;75;722;-70
2022/03/20 05:20:14;;;;;;;;;;;23.20;40.70;;;;;;1588632;75;737;-68
2022/03/20 05:22:16;;;;;;;;;;;23.10;40.70;;;;;;1587424;75;1917;-70
2022/03/20 05:24:18;;;;;;;;;;;23.00;40.70;;;;;;1584117;75;1475;-67
2022/03/20 05:26:20;;;;;;;;;;;23.20;40.80;;;;;;1561581;76;730;-66
2022/03/20 05:28:22;;;;;;;;;;;23.20;40.80;;;;;;1561793;76;663;-65
2022/03/20 05:30:23;;;;;;;;;;;23.20;41.00;;;;;;1561922;76;769;-66
2022/03/20 05:32:25;;;;;;;;;;;23.20;40.90;;;;;;1561764;75;715;-66
2022/03/20 05:34:27;;;;;;;;;;;23.20;40.90;;;;;;1586765;75;1478;-65
2022/03/20 05:36:29;;;;;;;;;;;23.20;40.90;;;;;;1588839;75;736;-67
2022/03/20 05:38:31;;;;;;;;;;;23.20;40.90;;;;;;1586484;75;765;-68
2022/03/20 05:40:33;;;;;;;;;;;23.20;40.90;;;;;;1587571;75;734;-68
2022/03/20 05:42:40;;;;;;;;;;;23.20;40.80;;;;;;1588749;75;1945;-69
2022/03/20 05:44:39;;;;;;;;;;;23.20;40.80;;;;;;1587447;75;1539;-67
2022/03/20 05:46:40;;;;;;;;;;;23.20;40.80;;;;;;1588820;75;746;-66
2022/03/20 05:48:42;;;;;;;;;;;23.20;40.70;;;;;;1587520;75;657;-66
2022/03/20 05:50:44;;;;;;;;;;;23.20;40.70;;;;;;1588925;75;775;-67
2022/03/20 05:52:46;;;;;;;;;;;23.30;40.90;;;;;;1588840;75;555;-69
2022/03/20 05:54:48;;;;;;;;;;;23.30;40.90;;;;;;1587596;75;1156;-68
2022/03/20 05:59:10;;;;;;;;;;;23.30;40.90;;;;;;1588738;75;1666;-66
2022/03/20 06:01:12;;;;;;;;;;;23.30;40.90;;;;;;1589337;75;752;-66
2022/03/20 06:03:15;;;;;;;;;;;23.30;40.90;;;;;;1587285;75;1918;-66
2022/03/20 06:05:16;;;;;;;;;;;23.20;40.80;;;;;;1588585;75;1112;-67
2022/03/20 06:07:18;;;;;;;;;;;23.30;40.90;;;;;;1588821;75;792;-66
2022/03/20 06:09:21;;;;;;;;;;;23.30;40.80;;;;;;1588912;75;770;-67
2022/03/20 06:11:22;;;;;;;;;;;23.30;40.80;;;;;;1587636;75;631;-66
2022/03/20 06:13:25;;;;;;;;;;;23.30;40.80;;;;;;1588807;75;722;-66
2022/03/20 06:15:26;;;;;;;;;;;23.30;41.00;;;;;;1588633;74;1084;-67
2022/03/20 06:17:29;;;;;;;;;;;23.30;41.10;;;;;;1588627;75;710;-67
2022/03/20 06:19:31;;;;;;;;;;;23.30;41.10;;;;;;1587586;75;643;-64
2022/03/20 06:21:33;;;;;;;;;;;23.30;41.10;;;;;;1588651;75;778;-64
2022/03/20 06:23:35;;;;;;;;;;;23.40;41.00;;;;;;1588720;74;1894;-64
2022/03/20 06:25:37;;;;;;;;;;;23.30;41.00;;;;;;1587610;75;1022;-64
2022/03/20 06:27:44;;;;;;;;;;;23.40;41.00;;;;;;1588763;75;710;-65
2022/03/20 06:29:45;;;;;;;;;;;23.40;41.00;;;;;;1588783;74;822;-64
2022/03/20 06:31:50;;;;;;;;;;;23.40;41.00;;;;;;1587385;75;698;-65
2022/03/20 06:33:51;;;;;;;;;;;23.40;40.90;;;;;;1575400;74;1598;-65
2022/03/20 06:35:53;;;;;;;;;;;23.30;40.90;;;;;;1557539;75;704;-65
2022/03/20 06:37:55;;;;;;;;;;;23.40;40.90;;;;;;1541947;75;852;-65
2022/03/20 06:39:57;;;;;;;;;;;23.40;40.90;;;;;;1549515;75;664;-65
2022/03/20 06:42:00;;;;;;;;;;;23.40;40.90;;;;;;1554494;75;2205;-67
2022/03/20 06:44:02;;;;;;;;;;;23.40;40.90;;;;;;1543355;75;1171;-65
2022/03/20 06:46:05;;;;;;;;;;;23.40;40.90;;;;;;1562098;75;897;-65
2022/03/20 06:48:07;;;;;;;;;;;23.40;41.00;;;;;;1563736;75;720;-65
2022/03/20 06:50:09;;;;;;;;;;;23.40;40.90;;;;;;1562922;75;726;-68
2022/03/20 06:52:11;;;;;;;;;;;23.40;40.90;;;;;;1563908;75;626;-65
2022/03/20 06:54:13;;;;;;;;;;;23.40;41.00;;;;;;1562540;75;1143;-65
2022/03/20 06:56:15;;;;;;;;;;;23.40;41.00;;;;;;1532211;77;720;-64
2022/03/20 06:58:23;;;;;;;;;;;23.40;40.90;;;;;;1561830;75;698;-65
2022/03/20 07:00:29;;;;;;;;;;;23.40;40.90;;;;;;1534119;77;747;-63
2022/03/20 07:02:28;;;;;;;;;;;23.50;41.30;;;;;;1538407;77;1933;-66
2022/03/20 07:04:30;;;;;;;;;;;23.50;41.40;;;;;;1567913;75;1200;-68
2022/03/20 07:06:33;;;;;;;;;;;23.50;41.40;;;;;;1566007;75;699;-67
2022/03/20 07:08:35;;;;;;;;;;;23.40;41.10;;;;;;1551104;75;727;-67
2022/03/20 07:10:37;;;;;;;;;;;23.50;40.80;;;;;;1555922;75;777;-66
2022/03/20 07:12:39;;;;;;;;;;;23.50;40.70;;;;;;1551350;75;671;-67
2022/03/20 07:14:45;;;;;;;;;;;23.50;40.50;;;;;;1575306;75;1171;-68
2022/03/20 07:16:44;;;;;;;;;;;23.50;40.20;;;;;;1574105;75;1288;-66
2022/03/20 07:18:46;;;;;;;;;;;23.40;40.00;;;;;;1565279;75;731;-68
2022/03/20 07:20:48;;;;;;;;;;;23.40;40.00;;;;;;1569474;75;720;-67
2022/03/20 07:22:50;;;;;;;;;;;23.40;39.80;;;;;;1571221;75;1940;-67
2022/03/20 07:24:52;;;;;;;;;;;23.50;39.90;;;;;;1557680;75;1141;-66
2022/03/20 07:29:32;;;;;;;;;;;23.40;39.60;;;;;;1570688;75;1656;-66
2022/03/20 07:31:34;;;;;;;;;;;23.50;39.70;;;;;;1566091;75;712;-67
2022/03/20 07:33:36;;;;;;;;;;;23.40;39.40;;;;;;1575109;75;730;-68
2022/03/20 07:35:38;;;;;;;;;;;23.40;39.40;;;;;;1566400;75;1030;-68
2022/03/20 07:37:40;;;;;;;;;;;23.40;39.30;;;;;;1566246;75;791;-66
2022/03/20 07:39:43;;;;;;;;;;;23.30;39.30;;;;;;1566287;75;771;-66
2022/03/20 07:41:45;;;;;;;;;;;23.40;39.20;;;;;;1572856;75;1704;-67
2022/03/20 07:43:48;;;;;;;;;;;23.40;39.20;;;;;;1568264;75;1935;-67
2022/03/20 07:45:50;;;;;;;;;;;23.40;39.20;;;;;;1567053;75;790;-66
2022/03/20 07:47:52;;;;;;;;;;;23.30;39.20;;;;;;1562302;75;800;-66
2022/03/20 07:49:54;;;;;;;;;;;23.40;39.10;;;;;;1568862;75;774;-67
2022/03/20 07:52:01;;;;;;;;;;;23.30;39.20;;;;;;1568305;75;790;-66
2022/03/20 07:54:00;;;;;;;;;;;23.40;39.20;;;;;;1576102;74;1176;-67
2022/03/20 07:56:02;;;;;;;;;;;23.40;39.30;;;;;;1562267;75;672;-67
2022/03/20 07:58:04;;;;;;;;;;;23.40;39.30;;;;;;1562240;75;771;-67
2022/03/20 08:00:06;;;;;;;;;;;23.40;39.30;;;;;;1562200;75;647;-67
2022/03/20 08:02:08;;;;;;;;;;;23.40;39.30;;;;;;1578942;75;616;-67
2022/03/20 08:04:10;;;;;;;;;;;23.50;39.40;;;;;;1578695;75;1933;-68
2022/03/20 08:06:12;;;;;;;;;;;23.30;39.30;;;;;;1571925;75;1067;-67
2022/03/20 08:08:16;;;;;;;;;;;23.40;39.30;;;;;;1571583;75;723;-66
2022/03/20 08:10:17;;;;;;;;;;;23.30;39.30;;;;;;1571715;75;1617;-67
2022/03/20 08:12:19;;;;;;;;;;;23.40;39.30;;;;;;1574713;75;814;-67
2022/03/20 08:14:22;;;;;;;;;;;23.30;39.20;;;;;;1570832;75;1156;-67
2022/03/20 08:16:26;;;;;;;;;;;23.40;39.20;;;;;;1571779;75;732;-67
2022/03/20 08:18:27;;;;;;;;;;;23.40;39.20;;;;;;1571616;75;610;-67
2022/03/20 08:20:29;;;;;;;;;;;23.30;39.20;;;;;;1576638;75;686;-67
2022/03/20 08:22:31;;;;;;;;;;;23.40;39.10;;;;;;1574402;75;1937;-67
2022/03/20 08:24:33;;;;;;;;;;;23.40;39.10;;;;;;1572314;75;1133;-67
2022/03/20 08:26:35;;;;;;;;;;;23.40;39.20;;;;;;1571777;75;725;-66
2022/03/20 08:28:37;;;;;;;;;;;23.40;39.10;;;;;;1574890;75;810;-68
2022/03/20 08:30:43;;;;;;;;;;;23.40;39.10;;;;;;1575619;75;802;-66
2022/03/20 08:32:43;;;;;;;;;;;23.40;39.10;;;;;;1577443;75;1606;-67
2022/03/20 08:34:44;;;;;;;;;;;23.40;39.10;;;;;;1572513;75;1137;-67
2022/03/20 08:36:46;;;;;;;;;;;23.40;39.10;;;;;;1576715;75;647;-67
2022/03/20 08:38:48;;;;;;;;;;;23.40;39.00;;;;;;1576845;75;644;-67
2022/03/20 08:40:50;;;;;;;;;;;23.40;39.00;;;;;;1571412;75;786;-67
2022/03/20 08:42:53;;;;;;;;;;;23.40;39.00;;;;;;1576470;75;1930;-68
2022/03/20 08:44:55;;;;;;;;;;;23.40;39.00;;;;;;1576009;75;1126;-66
2022/03/20 08:46:57;;;;;;;;;;;23.50;39.10;;;;;;1575725;75;800;-70
2022/03/20 08:49:03;;;;;;;;;;;23.40;38.90;;;;;;1579070;75;688;-68
2022/03/20 08:51:02;;;;;;;;;;;23.40;38.90;;;;;;1575214;75;1139;-66
2022/03/20 08:53:04;;;;;;;;;;;23.40;38.90;;;;;;1580168;75;726;-66
2022/03/20 08:55:10;;;;;;;;;;;23.50;39.00;;;;;;1577524;75;1472;-67
2022/03/20 08:57:09;;;;;;;;;;;23.40;38.90;;;;;;1574994;74;1561;-68
2022/03/20 08:59:12;;;;;;;;;;;23.40;38.90;;;;;;1572493;75;682;-67
2022/03/20 09:01:13;;;;;;;;;;;23.40;38.90;;;;;;1575389;75;678;-68
2022/03/20 09:03:15;;;;;;;;;;;23.40;38.90;;;;;;1577079;75;1951;-69
2022/03/20 09:05:17;;;;;;;;;;;23.40;38.90;;;;;;1555929;75;1154;-67
2022/03/20 09:07:19;;;;;;;;;;;23.50;39.00;;;;;;1566097;75;1093;-68
2022/03/20 09:09:21;;;;;;;;;;;23.40;38.90;;;;;;1555227;75;719;-67
2022/03/20 09:11:23;;;;;;;;;;;23.40;38.90;;;;;;1561629;75;714;-66
2022/03/20 09:13:25;;;;;;;;;;;23.40;38.90;;;;;;1561718;75;838;-66
2022/03/20 09:15:27;;;;;;;;;;;23.40;38.90;;;;;;1561875;75;1146;-69
2022/03/20 09:19:54;;;;;;;;;;;23.40;38.90;;;;;;1557188;75;1640;-69
2022/03/20 09:21:54;;;;;;;;;;;23.50;39.00;;;;;;1560467;74;1577;-66
2022/03/20 09:23:55;;;;;;;;;;;23.40;38.80;;;;;;1563930;75;1943;-67
2022/03/20 09:25:57;;;;;;;;;;;23.40;38.90;;;;;;1562387;75;791;-68
2022/03/20 09:28:01;;;;;;;;;;;23.40;38.90;;;;;;1558977;75;795;-66
2022/03/20 09:30:03;;;;;;;;;;;23.40;38.80;;;;;;1558910;75;1099;-67
2022/03/20 09:32:06;;;;;;;;;;;23.40;38.90;;;;;;1568315;75;729;-67
2022/03/20 09:34:08;;;;;;;;;;;23.40;38.80;;;;;;1566308;75;1145;-66
2022/03/20 09:36:10;;;;;;;;;;;23.40;38.80;;;;;;1558451;75;798;-67
2022/03/20 09:38:12;;;;;;;;;;;23.40;38.90;;;;;;1558694;75;723;-67
2022/03/20 09:40:14;;;;;;;;;;;23.50;38.90;;;;;;1557033;75;767;-66
2022/03/20 09:42:18;;;;;;;;;;;23.40;38.90;;;;;;1565478;75;673;-66
2022/03/20 09:44:22;;;;;;;;;;;23.50;38.90;;;;;;1572381;72;2070;-66
2022/03/20 09:46:25;;;;;;;;;;;23.50;38.90;;;;;;1578649;73;1744;-68
2022/03/20 09:48:29;;;;;;;;;;;23.50;38.90;;;;;;1584642;73;738;-66
2022/03/20 09:50:31;;;;;;;;;;;23.50;38.90;;;;;;1582745;73;713;-67
2022/03/20 09:52:34;;;;;;;;;;;23.50;38.90;;;;;;1582202;73;719;-66
2022/03/20 09:54:36;;;;;;;;;;;23.50;38.80;;;;;;1579795;73;1213;-67
2022/03/20 09:56:38;;;;;;;;;;;23.50;38.90;;;;;;1579836;75;714;-68
2022/03/20 09:58:39;;;;;;;;;;;23.40;38.70;;;;;;1583335;75;720;-68
2022/03/20 10:00:41;;;;;;;;;;;23.50;38.80;;;;;;1577291;75;750;-66
2022/03/20 10:02:43;;;;;;;;;;;23.50;38.80;;;;;;1579016;75;769;-68
2022/03/20 10:04:52;;;;;;;;;;;23.50;38.80;;;;;;1579553;74;1941;-67
2022/03/20 10:06:54;;;;;;;;;;;23.50;38.80;;;;;;1578991;75;717;-66
2022/03/20 10:08:58;;;;;;;;;;;23.50;38.70;;;;;;1579423;75;747;-66
2022/03/20 10:11:13;;;;;;;;;;;23.60;38.70;;;;;;1578759;75;753;-66
2022/03/20 10:13:15;;;;;;;;;;;23.60;38.80;;;;;;1580391;74;673;-66
2022/03/20 10:15:27;;;;;;;;;;;23.50;38.70;;;;;;1579926;75;1147;-66
2022/03/20 10:17:29;;;;;;;;;;;23.50;38.80;;;;;;1578489;75;648;-67
2022/03/20 10:19:31;;;;;;;;;;;23.50;38.70;;;;;;1581565;75;769;-67
2022/03/20 10:21:45;;;;;;;;;;;23.50;38.70;;;;;;1578188;74;797;-67
2022/03/20 10:23:47;;;;;;;;;;;23.50;38.80;;;;;;1575337;75;1899;-67
2022/03/20 10:25:52;;;;;;;;;;;23.60;38.70;;;;;;1577429;74;1074;-67
2022/03/20 10:27:57;;;;;;;;;;;23.60;38.70;;;;;;1579880;75;811;-67
2022/03/20 10:30:00;;;;;;;;;;;23.60;38.70;;;;;;1579330;75;745;-67
2022/03/20 10:32:03;;;;;;;;;;;23.50;38.70;;;;;;1577922;74;1065;-67
2022/03/20 10:34:06;;;;;;;;;;;23.60;38.80;;;;;;1578972;75;1313;-67
2022/03/20 10:36:09;;;;;;;;;;;23.60;38.70;;;;;;1577920;75;715;-67
2022/03/20 10:38:11;;;;;;;;;;;23.60;38.80;;;;;;1577721;75;717;-67
2022/03/20 10:40:14;;;;;;;;;;;23.50;38.70;;;;;;1585120;74;694;-67
2022/03/20 10:42:18;;;;;;;;;;;23.50;38.70;;;;;;1579866;75;744;-67
2022/03/20 10:44:20;;;;;;;;;;;23.50;38.70;;;;;;1582545;75;1925;-67
2022/03/20 10:46:23;;;;;;;;;;;23.60;38.70;;;;;;1573417;75;801;-67
2022/03/20 10:48:30;;;;;;;;;;;23.50;38.70;;;;;;1570759;74;660;-67
2022/03/20 10:50:32;;;;;;;;;;;23.60;38.80;;;;;;1560203;75;614;-67
2022/03/20 10:52:36;;;;;;;;;;;23.60;38.70;;;;;;1560669;75;859;-67
2022/03/20 10:54:45;;;;;;;;;;;23.60;38.90;;;;;;1562886;74;1161;-66
2022/03/20 10:56:55;;;;;;;;;;;23.50;38.60;;;;;;1559959;75;1165;-66
2022/03/20 10:58:57;;;;;;;;;;;23.60;38.20;;;;;;1560516;75;777;-66
2022/03/20 11:00:59;;;;;;;;;;;23.60;38.30;;;;;;1560431;75;648;-66
2022/03/20 11:03:01;;;;;;;;;;;23.80;37.90;;;;;;1564563;74;765;-66
2022/03/20 11:05:03;;;;;;;;;;;23.90;37.50;;;;;;1582003;75;1946;-66
2022/03/20 11:07:07;;;;;;;;;;;24.00;36.80;;;;;;1582906;75;685;-67
2022/03/20 11:09:08;;;;;;;;;;;23.90;36.00;;;;;;1570327;75;1691;-66
2022/03/20 11:11:10;;;;;;;;;;;24.00;35.30;;;;;;1568487;75;720;-66
2022/03/20 11:13:13;;;;;;;;;;;23.90;35.40;;;;;;1580043;74;801;-66
2022/03/20 11:15:15;;;;;;;;;;;23.90;35.20;;;;;;1577479;75;1149;-65
2022/03/20 11:17:17;;;;;;;;;;;23.90;35.80;;;;;;1582552;75;809;-67
2022/03/20 11:19:23;;;;;;;;;;;23.90;35.30;;;;;;1576291;75;796;-66
2022/03/20 11:21:25;;;;;;;;;;;23.80;35.10;;;;;;1579559;74;719;-66
2022/03/20 11:23:27;;;;;;;;;;;23.80;35.40;;;;;;1576444;75;784;-66
2022/03/20 11:25:30;;;;;;;;;;;23.90;36.10;;;;;;1580854;74;1943;-66
2022/03/20 11:27:32;;;;;;;;;;;23.80;33.50;;;;;;1580406;75;838;-66
2022/03/20 11:29:39;;;;;;;;;;;23.90;35.70;;;;;;1578121;75;704;-66
2022/03/20 11:31:41;;;;;;;;;;;24.00;35.20;;;;;;1578700;75;2026;-65
2022/03/20 11:33:43;;;;;;;;;;;24.00;35.00;;;;;;1568147;74;788;-66
2022/03/20 11:35:45;;;;;;;;;;;24.10;34.80;;;;;;1569159;75;1145;-66
2022/03/20 11:37:48;;;;;;;;;;;24.10;33.70;;;;;;1567445;75;780;-65
2022/03/20 11:40:09;;;;;;;;;;;24.00;34.40;;;;;;1560171;75;730;-66
2022/03/20 11:42:26;;;;;;;;;;;24.00;34.40;;;;;;1570291;74;749;-67
2022/03/20 11:44:28;;;;;;;;;;;24.00;34.10;;;;;;1565883;75;1934;-66
2022/03/20 11:46:33;;;;;;;;;;;24.00;34.00;;;;;;1570338;75;788;-65
2022/03/20 11:48:34;;;;;;;;;;;24.00;33.90;;;;;;1560790;75;1670;-66
2022/03/20 11:50:40;;;;;;;;;;;23.90;33.80;;;;;;1567979;74;875;-66
2022/03/20 11:52:44;;;;;;;;;;;24.00;33.90;;;;;;1560071;75;1789;-65
2022/03/20 11:54:48;;;;;;;;;;;23.90;33.80;;;;;;1562065;74;1773;-65
2022/03/20 11:56:52;;;;;;;;;;;24.00;33.70;;;;;;1560356;75;761;-65
2022/03/20 11:58:54;;;;;;;;;;;23.90;33.50;;;;;;1564880;74;1593;-66
2022/03/20 12:01:03;;;;;;;;;;;23.90;33.50;;;;;;1572139;75;796;-67
2022/03/20 12:03:16;;;;;;;;;;;23.90;33.30;;;;;;1564506;75;1108;-66
2022/03/20 12:05:23;;;;;;;;;;;23.90;33.30;;;;;;1560225;75;1933;-67
2022/03/20 12:07:26;;;;;;;;;;;23.90;33.20;;;;;;1560240;75;741;-66
2022/03/20 12:09:38;;;;;;;;;;;23.90;33.20;;;;;;1560742;74;1856;-65
2022/03/20 12:11:42;;;;;;;;;;;23.90;32.60;;;;;;1560494;75;627;-66
2022/03/20 12:13:51;;;;;;;;;;;23.90;33.00;;;;;;1560371;75;714;-66
2022/03/20 12:15:58;;;;;;;;;;;23.80;32.70;;;;;;1560319;75;1044;-66
2022/03/20 12:17:58;;;;;;;;;;;23.90;32.80;;;;;;1559397;74;1592;-66
2022/03/20 12:20:00;;;;;;;;;;;23.80;32.70;;;;;;1560420;75;800;-65
2022/03/20 12:22:02;;;;;;;;;;;23.80;32.60;;;;;;1560623;75;720;-66
2022/03/20 12:24:04;;;;;;;;;;;23.80;32.60;;;;;;1561332;74;1923;-66
2022/03/20 12:26:26;;;;;;;;;;;23.80;32.40;;;;;;1558741;76;1490;-65
2022/03/20 12:28:29;;;;;;;;;;;23.70;32.20;;;;;;1569317;75;767;-66
2022/03/20 12:30:31;;;;;;;;;;;23.70;32.40;;;;;;1571906;75;1060;-65
2022/03/20 12:32:52;;;;;;;;;;;23.70;32.30;;;;;;1569935;74;705;-65
2022/03/20 12:35:04;;;;;;;;;;;23.70;32.10;;;;;;1560231;75;1165;-66
2022/03/20 12:37:24;;;;;;;;;;;23.70;32.10;;;;;;1560409;75;681;-66
2022/03/20 12:39:44;;;;;;;;;;;23.60;32.10;;;;;;1565099;75;750;-66
2022/03/20 12:41:46;;;;;;;;;;;23.60;32.20;;;;;;1562738;74;674;-66
2022/03/20 12:43:58;;;;;;;;;;;23.60;32.10;;;;;;1567259;75;691;-65